Time;durP1;ratioP1;P1;durP2;ratioP2;P2;SDS_P1;SDS_P2;PMS_P1;PMS_P2;Temp;Humidity;BMP_temperature;BMP_pressure;BME280_temperature;BME280_humidity;BME280_pressure;Samples;Min_cycle;Max_cycle;Signal;HPM_P1;HPM_P2
2023/08/04 00:01:10;;;;;;;4.50;3.73;;;16.70;99.90;;;;;;4998191;28;20488;-62
2023/08/04 00:03:38;;;;;;;9.40;4.50;;;16.70;99.90;;;;;;4998930;28;21047;-61
2023/08/04 00:06:09;;;;;;;9.63;3.97;;;16.70;99.90;;;;;;5001390;28;20472;-61
2023/08/04 00:08:37;;;;;;;5.60;4.03;;;16.70;99.90;;;;;;5001100;28;20547;-61
2023/08/04 00:11:05;;;;;;;5.07;4.03;;;16.60;99.90;;;;;;5000690;28;20519;-61
2023/08/04 00:13:34;;;;;;;6.83;3.73;;;16.60;99.90;;;;;;4998637;28;20488;-61
2023/08/04 00:16:06;;;;;;;5.53;3.60;;;16.60;99.90;;;;;;5003588;28;20853;-62
2023/08/04 00:18:35;;;;;;;4.83;4.17;;;16.50;99.90;;;;;;5004111;28;20946;-62
2023/08/04 00:21:04;;;;;;;8.40;3.90;;;16.50;99.90;;;;;;5003802;28;20519;-62
2023/08/04 00:23:32;;;;;;;6.87;3.60;;;16.50;99.90;;;;;;5005904;28;20484;-61
2023/08/04 00:26:00;;;;;;;4.47;3.43;;;16.40;99.90;;;;;;5001461;28;20526;-61
2023/08/04 00:28:28;;;;;;;8.10;4.00;;;16.40;99.90;;;;;;5001469;28;20555;-61
2023/08/04 00:30:56;;;;;;;4.90;4.37;;;16.40;99.90;;;;;;5003824;28;21034;-61
2023/08/04 00:33:24;;;;;;;5.77;4.07;;;16.40;99.90;;;;;;5003846;28;20562;-61
2023/08/04 00:35:53;;;;;;;7.27;4.23;;;16.30;99.90;;;;;;5004180;28;20479;-61
2023/08/04 00:38:21;;;;;;;4.97;3.93;;;16.30;99.90;;;;;;5005577;28;20491;-61
2023/08/04 00:40:49;;;;;;;6.57;3.73;;;16.30;99.90;;;;;;5002838;28;20523;-61
2023/08/04 00:43:17;;;;;;;4.10;3.70;;;16.20;99.90;;;;;;5002944;28;20516;-62
2023/08/04 00:45:45;;;;;;;5.13;3.87;;;16.20;99.90;;;;;;5003705;28;21065;-61
2023/08/04 00:48:13;;;;;;;4.97;4.10;;;16.20;99.90;;;;;;5003975;28;20476;-62
2023/08/04 00:50:42;;;;;;;4.47;3.83;;;16.10;99.90;;;;;;5006659;28;20935;-61
2023/08/04 00:53:13;;;;;;;5.27;3.90;;;16.10;99.90;;;;;;5003922;28;20839;-62
2023/08/04 00:55:42;;;;;;;6.10;4.00;;;16.10;99.90;;;;;;5007151;28;21049;-62
2023/08/04 00:58:10;;;;;;;5.53;4.00;;;16.00;99.90;;;;;;5009071;28;20484;-62
2023/08/04 01:00:40;;;;;;;4.83;3.73;;;16.00;99.90;;;;;;5007100;28;20571;-62
2023/08/04 01:03:08;;;;;;;7.87;4.30;;;16.00;99.90;;;;;;5002759;28;20571;-64
2023/08/04 01:05:46;;;;;;;8.30;4.53;;;15.90;99.90;;;;;;5006147;28;20902;-61
2023/08/04 01:08:20;;;;;;;7.27;4.10;;;15.90;99.90;;;;;;5004231;28;20554;-61
2023/08/04 01:10:54;;;;;;;5.73;4.03;;;15.90;99.90;;;;;;5005073;28;20520;-62
2023/08/04 01:13:25;;;;;;;4.93;3.60;;;15.80;99.90;;;;;;5015529;28;20506;-61
2023/08/04 01:15:55;;;;;;;9.10;4.10;;;15.80;99.90;;;;;;5019542;28;21028;-61
2023/08/04 01:18:23;;;;;;;4.53;4.00;;;15.70;99.90;;;;;;5005033;28;20468;-61
2023/08/04 01:20:51;;;;;;;5.00;3.90;;;15.70;99.90;;;;;;5004791;28;20578;-61
2023/08/04 01:23:20;;;;;;;5.43;4.00;;;15.70;99.90;;;;;;5005076;28;20575;-62
2023/08/04 01:25:49;;;;;;;5.90;3.80;;;15.60;99.90;;;;;;5007099;28;20492;-61
2023/08/04 01:28:17;;;;;;;6.30;3.73;;;15.60;99.90;;;;;;5007207;28;20595;-61
2023/08/04 01:30:49;;;;;;;5.30;3.63;;;15.50;99.90;;;;;;5006485;28;20524;-62
2023/08/04 01:33:17;;;;;;;5.93;3.90;;;15.50;99.90;;;;;;4999656;28;21108;-62
2023/08/04 01:35:45;;;;;;;4.87;3.80;;;15.50;99.90;;;;;;5010107;28;20556;-62
2023/08/04 01:38:13;;;;;;;4.60;4.00;;;15.50;99.90;;;;;;5002883;28;20476;-61
2023/08/04 01:40:42;;;;;;;5.73;3.93;;;15.50;99.90;;;;;;5002899;28;22343;-61
2023/08/04 01:43:10;;;;;;;5.73;4.20;;;15.50;99.90;;;;;;5001130;28;21350;-61
2023/08/04 01:45:38;;;;;;;6.40;4.30;;;15.60;99.90;;;;;;5001163;28;20476;-62
2023/08/04 01:48:06;;;;;;;6.93;4.27;;;15.50;99.90;;;;;;5001133;28;20473;-61
2023/08/04 01:50:34;;;;;;;4.37;3.97;;;15.60;99.90;;;;;;5003485;28;20589;-61
2023/08/04 01:53:02;;;;;;;4.93;4.50;;;15.60;99.90;;;;;;5002267;28;20650;-62
2023/08/04 01:55:30;;;;;;;6.00;3.80;;;15.60;99.90;;;;;;5002389;28;20473;-62
2023/08/04 01:57:59;;;;;;;7.20;4.17;;;15.60;99.90;;;;;;4999754;28;20559;-62
2023/08/04 02:00:27;;;;;;;7.33;4.33;;;15.60;99.90;;;;;;4999856;28;21380;-62
2023/08/04 02:02:55;;;;;;;5.23;3.93;;;15.70;99.90;;;;;;5002428;28;20619;-62
2023/08/04 02:05:23;;;;;;;6.33;4.23;;;15.70;99.90;;;;;;5004077;28;20487;-62
2023/08/04 02:07:51;;;;;;;5.23;4.50;;;15.70;99.90;;;;;;5003071;28;20468;-61
2023/08/04 02:10:19;;;;;;;4.30;3.80;;;15.70;99.90;;;;;;5000676;28;20858;-62
2023/08/04 02:12:47;;;;;;;6.27;4.80;;;15.70;99.90;;;;;;4999873;28;20492;-62
2023/08/04 02:15:17;;;;;;;6.13;4.10;;;15.70;99.90;;;;;;5000630;28;20546;-62
2023/08/04 02:17:47;;;;;;;6.13;4.83;;;15.80;99.90;;;;;;5002450;28;21007;-62
2023/08/04 02:20:15;;;;;;;7.77;4.17;;;15.80;99.90;;;;;;5002695;28;20500;-62
2023/08/04 02:22:43;;;;;;;5.50;3.97;;;15.80;99.90;;;;;;4999122;28;20567;-62
2023/08/04 02:25:11;;;;;;;7.67;4.20;;;15.80;99.90;;;;;;4999647;28;20845;-62
2023/08/04 02:27:39;;;;;;;4.83;4.27;;;15.80;99.90;;;;;;5002517;28;21035;-62
2023/08/04 02:30:08;;;;;;;6.00;4.47;;;15.80;99.90;;;;;;5001825;28;20484;-62
2023/08/04 02:32:37;;;;;;;6.43;4.40;;;15.80;99.90;;;;;;4998177;28;21216;-62
2023/08/04 02:35:06;;;;;;;4.80;4.37;;;15.80;99.90;;;;;;5002852;28;21136;-62
2023/08/04 02:37:34;;;;;;;4.87;4.30;;;15.80;99.90;;;;;;5002406;28;20472;-62
2023/08/04 02:40:02;;;;;;;6.77;4.00;;;15.80;99.90;;;;;;5002663;28;20583;-62
2023/08/04 02:42:30;;;;;;;4.67;4.13;;;15.90;99.90;;;;;;5000044;28;20527;-62
2023/08/04 02:44:58;;;;;;;7.83;4.70;;;15.90;99.90;;;;;;5000027;28;20522;-62
2023/08/04 02:47:26;;;;;;;11.63;4.67;;;15.90;99.90;;;;;;5000145;28;21032;-62
2023/08/04 02:49:56;;;;;;;5.90;5.00;;;15.90;99.90;;;;;;5000398;28;20468;-61
2023/08/04 02:52:24;;;;;;;7.00;5.43;;;15.90;99.90;;;;;;5002225;28;20511;-62
2023/08/04 02:54:55;;;;;;;7.60;5.10;;;15.90;99.90;;;;;;5003895;28;20563;-62
2023/08/04 02:57:28;;;;;;;8.07;5.40;;;15.90;99.90;;;;;;5003314;28;20504;-62
2023/08/04 02:59:56;;;;;;;9.70;4.77;;;15.90;99.90;;;;;;4998991;28;20492;-62
2023/08/04 03:02:24;;;;;;;6.73;4.90;;;15.80;99.90;;;;;;4999245;28;21115;-62
2023/08/04 03:04:52;;;;;;;5.83;4.87;;;15.80;99.90;;;;;;5002450;28;20465;-62
2023/08/04 03:07:22;;;;;;;6.40;5.80;;;15.80;99.90;;;;;;5001687;28;20500;-62
2023/08/04 03:09:50;;;;;;;5.57;4.77;;;15.80;99.90;;;;;;5002056;28;20475;-62
2023/08/04 03:12:18;;;;;;;7.70;5.50;;;15.70;99.90;;;;;;5001198;28;20583;-61
2023/08/04 03:14:46;;;;;;;5.57;4.60;;;15.70;99.90;;;;;;4999334;28;20476;-62
2023/08/04 03:17:15;;;;;;;5.53;4.73;;;15.70;99.90;;;;;;5002055;28;21011;-62
2023/08/04 03:19:42;;;;;;;5.20;4.70;;;15.70;99.90;;;;;;5000523;28;20510;-62
2023/08/04 03:22:10;;;;;;;7.50;5.37;;;15.70;99.90;;;;;;5000114;28;20472;-62
2023/08/04 03:24:40;;;;;;;8.60;5.43;;;15.80;99.90;;;;;;5000754;28;20556;-62
2023/08/04 03:27:08;;;;;;;6.53;5.17;;;15.70;99.90;;;;;;4998039;28;20977;-62
2023/08/04 03:29:36;;;;;;;7.70;5.00;;;15.70;99.90;;;;;;5001404;28;20554;-62
2023/08/04 03:32:05;;;;;;;5.80;5.30;;;15.70;99.90;;;;;;5001020;28;20487;-62
2023/08/04 03:34:33;;;;;;;8.13;5.57;;;15.70;99.90;;;;;;5001908;28;20559;-62
2023/08/04 03:37:01;;;;;;;7.37;5.10;;;15.70;99.90;;;;;;5001615;28;20562;-62
2023/08/04 03:39:29;;;;;;;7.17;5.20;;;15.70;99.90;;;;;;5000346;28;20476;-62
2023/08/04 03:41:58;;;;;;;6.20;5.53;;;15.70;99.90;;;;;;4998738;28;20512;-62
2023/08/04 03:44:26;;;;;;;8.70;4.73;;;15.70;99.90;;;;;;4999309;28;20519;-62
2023/08/04 03:46:54;;;;;;;8.70;5.40;;;15.80;99.90;;;;;;5013294;28;20554;-61
2023/08/04 03:49:23;;;;;;;9.67;4.80;;;15.80;99.90;;;;;;5022721;28;20472;-62
2023/08/04 03:51:51;;;;;;;7.47;4.63;;;15.70;99.90;;;;;;5004373;28;20890;-62
2023/08/04 03:54:19;;;;;;;7.03;4.60;;;15.70;99.90;;;;;;4999654;28;20469;-62
2023/08/04 03:56:47;;;;;;;7.23;5.20;;;15.70;99.90;;;;;;4998195;28;20568;-63
2023/08/04 03:59:16;;;;;;;8.17;5.07;;;15.70;99.90;;;;;;5000432;28;20575;-62
2023/08/04 04:01:44;;;;;;;5.70;5.00;;;15.70;99.90;;;;;;5001661;28;21396;-63
2023/08/04 04:04:13;;;;;;;5.40;4.90;;;15.80;99.90;;;;;;5000324;28;20483;-61
2023/08/04 04:06:41;;;;;;;5.13;4.67;;;15.80;99.90;;;;;;4998505;28;20476;-61
2023/08/04 04:09:09;;;;;;;6.23;4.87;;;15.70;99.90;;;;;;5000749;28;20464;-62
2023/08/04 04:11:36;;;;;;;5.37;4.50;;;15.70;99.90;;;;;;4999783;28;20579;-62
2023/08/04 04:14:04;;;;;;;7.17;4.87;;;15.70;99.90;;;;;;4999804;28;20476;-62
2023/08/04 04:16:34;;;;;;;5.73;4.77;;;15.70;99.90;;;;;;5000277;28;20515;-62
2023/08/04 04:19:02;;;;;;;6.53;4.93;;;15.70;99.90;;;;;;4998569;28;20901;-62
2023/08/04 04:21:30;;;;;;;5.50;4.03;;;15.70;99.90;;;;;;4998458;28;21045;-62
2023/08/04 04:23:58;;;;;;;5.67;4.57;;;15.80;99.90;;;;;;5000192;28;21089;-62
2023/08/04 04:26:26;;;;;;;5.77;4.87;;;15.80;99.90;;;;;;5001246;28;20469;-61
2023/08/04 04:28:54;;;;;;;7.30;4.77;;;15.80;99.90;;;;;;5000369;28;20559;-62
2023/08/04 04:31:22;;;;;;;5.17;4.70;;;15.80;99.90;;;;;;4997383;28;20539;-62
2023/08/04 04:33:51;;;;;;;7.67;5.50;;;15.80;99.90;;;;;;5000356;28;20490;-62
2023/08/04 04:36:19;;;;;;;5.80;5.20;;;15.80;99.90;;;;;;5001043;28;20480;-61
2023/08/04 04:38:47;;;;;;;7.40;5.23;;;15.80;99.90;;;;;;4997124;28;20563;-62
2023/08/04 04:41:15;;;;;;;5.93;4.77;;;15.80;99.90;;;;;;4999739;28;20504;-62
2023/08/04 04:43:43;;;;;;;8.97;5.10;;;15.80;99.90;;;;;;4999730;28;20583;-61
2023/08/04 04:46:11;;;;;;;5.73;4.97;;;15.80;99.90;;;;;;5000641;28;20567;-61
2023/08/04 04:48:39;;;;;;;6.10;5.37;;;15.80;99.90;;;;;;4999714;28;20472;-61
2023/08/04 04:51:08;;;;;;;9.47;5.23;;;15.80;99.90;;;;;;4996937;28;20563;-62
2023/08/04 04:53:36;;;;;;;7.37;5.53;;;15.80;99.90;;;;;;4999903;28;20492;-62
2023/08/04 04:56:06;;;;;;;7.23;5.90;;;15.80;99.90;;;;;;5001758;28;20473;-61
2023/08/04 04:58:34;;;;;;;7.90;5.13;;;15.80;99.90;;;;;;5000663;28;20480;-62
2023/08/04 05:01:03;;;;;;;10.93;6.03;;;15.70;99.90;;;;;;4999820;28;20503;-61
2023/08/04 05:03:31;;;;;;;10.40;5.80;;;15.70;99.90;;;;;;5001707;28;20584;-61
2023/08/04 05:05:59;;;;;;;5.80;5.07;;;15.70;99.90;;;;;;5003883;28;20902;-61
2023/08/04 05:08:28;;;;;;;10.27;5.43;;;15.70;99.90;;;;;;5003281;28;20476;-62
2023/08/04 05:10:56;;;;;;;10.33;5.70;;;15.80;99.90;;;;;;5004561;28;20511;-61
2023/08/04 05:13:24;;;;;;;8.57;5.53;;;15.80;99.90;;;;;;5005706;28;20913;-61
2023/08/04 05:15:52;;;;;;;5.67;4.97;;;15.90;99.90;;;;;;5002298;28;21071;-62
2023/08/04 05:18:20;;;;;;;8.10;5.20;;;15.90;99.90;;;;;;5004177;28;20475;-62
2023/08/04 05:20:48;;;;;;;5.43;4.33;;;16.00;99.90;;;;;;5003943;28;20527;-61
2023/08/04 05:23:17;;;;;;;5.50;5.00;;;16.00;99.90;;;;;;5002473;28;20618;-62
2023/08/04 05:25:46;;;;;;;9.43;4.60;;;16.10;99.90;;;;;;5000470;28;21243;-62
2023/08/04 05:28:22;;;;;;;7.37;4.47;;;16.20;99.90;;;;;;4999540;28;20481;-62
2023/08/04 05:30:54;;;;;;;5.50;4.33;;;16.30;99.90;;;;;;5004326;28;20579;-62
2023/08/04 05:33:23;;;;;;;5.53;4.30;;;16.30;99.90;;;;;;5003619;28;20489;-62
2023/08/04 05:35:52;;;;;;;6.40;4.17;;;16.30;99.90;;;;;;5004780;28;20475;-62
2023/08/04 05:38:20;;;;;;;5.80;4.03;;;16.30;99.90;;;;;;5001089;28;20576;-62
2023/08/04 05:40:50;;;;;;;7.00;4.47;;;16.30;99.90;;;;;;4999134;28;21077;-62
2023/08/04 05:43:18;;;;;;;8.93;4.30;;;16.30;99.90;;;;;;5003362;28;20484;-62
2023/08/04 05:45:48;;;;;;;5.87;4.50;;;16.40;99.90;;;;;;5003945;28;20484;-62
2023/08/04 05:48:16;;;;;;;7.07;4.50;;;16.40;99.90;;;;;;5004414;28;20947;-62
2023/08/04 05:50:45;;;;;;;6.13;4.50;;;16.40;99.90;;;;;;5002915;28;20500;-63
2023/08/04 05:53:14;;;;;;;4.60;4.07;;;16.40;99.90;;;;;;5000280;28;20565;-62
2023/08/04 05:55:42;;;;;;;6.77;4.40;;;16.40;99.90;;;;;;5002888;28;20551;-60
2023/08/04 05:58:11;;;;;;;4.23;3.83;;;16.40;99.90;;;;;;5002361;28;20580;-63
2023/08/04 06:00:39;;;;;;;5.73;4.43;;;16.50;99.90;;;;;;5004311;28;20496;-61
2023/08/04 06:03:07;;;;;;;5.90;4.30;;;16.60;99.90;;;;;;5002070;28;20516;-61
2023/08/04 06:05:35;;;;;;;4.80;3.87;;;16.50;99.90;;;;;;5001800;28;20577;-61
2023/08/04 06:08:03;;;;;;;4.73;4.00;;;16.50;99.90;;;;;;5002967;28;20992;-61
2023/08/04 06:10:32;;;;;;;3.90;3.60;;;16.60;99.90;;;;;;5002418;28;21023;-61
2023/08/04 06:13:02;;;;;;;5.37;4.10;;;16.70;99.90;;;;;;5001056;28;20480;-61
2023/08/04 06:15:31;;;;;;;5.50;4.20;;;16.70;99.90;;;;;;4999939;28;20852;-60
2023/08/04 06:17:59;;;;;;;6.23;4.20;;;16.70;99.90;;;;;;5001644;28;20508;-61
2023/08/04 06:20:27;;;;;;;5.40;3.97;;;16.70;99.90;;;;;;5005453;28;20495;-60
2023/08/04 06:22:56;;;;;;;5.30;3.80;;;16.80;99.90;;;;;;5019073;28;20522;-67
2023/08/04 06:25:24;;;;;;;4.87;3.37;;;16.80;99.90;;;;;;5013662;28;20837;-61
2023/08/04 06:27:53;;;;;;;8.83;4.60;;;16.80;99.90;;;;;;5001719;28;20837;-63
2023/08/04 06:30:21;;;;;;;5.90;4.00;;;16.80;99.90;;;;;;5001924;28;20543;-61
2023/08/04 06:32:51;;;;;;;4.97;4.00;;;16.80;99.90;;;;;;5001508;28;20543;-61
2023/08/04 06:35:19;;;;;;;5.50;3.70;;;16.80;99.90;;;;;;5004760;28;20494;-61
2023/08/04 06:37:47;;;;;;;4.43;3.50;;;16.80;99.90;;;;;;5003281;28;21006;-61
2023/08/04 06:40:15;;;;;;;6.93;3.40;;;16.80;99.90;;;;;;4999049;28;20572;-61
2023/08/04 06:42:43;;;;;;;4.43;3.40;;;16.80;99.90;;;;;;5004651;28;20562;-61
2023/08/04 06:45:11;;;;;;;5.90;3.60;;;16.80;99.90;;;;;;5010364;28;20468;-61
2023/08/04 06:47:39;;;;;;;6.90;3.50;;;16.90;99.90;;;;;;5010195;28;20845;-61
2023/08/04 06:50:09;;;;;;;5.63;3.50;;;16.90;99.90;;;;;;5009729;28;20496;-61
2023/08/04 06:52:37;;;;;;;7.63;3.40;;;17.00;99.90;;;;;;5005979;28;20564;-61
2023/08/04 06:55:06;;;;;;;4.63;3.00;;;17.00;99.90;;;;;;5010385;28;20849;-61
2023/08/04 06:57:34;;;;;;;4.07;3.47;;;17.00;99.90;;;;;;5009099;28;20587;-61
2023/08/04 07:00:02;;;;;;;4.07;3.07;;;17.00;99.90;;;;;;5009248;28;20491;-63
2023/08/04 07:02:30;;;;;;;5.70;3.03;;;17.00;99.90;;;;;;5003670;28;20596;-61
2023/08/04 07:04:58;;;;;;;4.33;3.87;;;17.00;99.90;;;;;;4994617;28;20730;-61
2023/08/04 07:07:28;;;;;;;5.00;3.17;;;17.10;99.90;;;;;;5007736;28;20475;-63
2023/08/04 07:09:56;;;;;;;3.47;3.10;;;17.10;99.90;;;;;;5004889;28;20858;-62
2023/08/04 07:12:24;;;;;;;5.03;3.40;;;17.10;99.90;;;;;;5008998;28;20575;-62
2023/08/04 07:14:52;;;;;;;5.33;3.10;;;17.20;99.90;;;;;;5009122;28;20559;-63
2023/08/04 07:17:20;;;;;;;6.37;3.60;;;17.30;99.90;;;;;;5007082;28;20473;-62
2023/08/04 07:19:48;;;;;;;3.13;2.90;;;17.30;99.90;;;;;;5008425;28;20932;-62
2023/08/04 07:22:16;;;;;;;4.00;2.93;;;17.30;99.90;;;;;;5007836;28;20489;-62
2023/08/04 07:24:48;;;;;;;4.60;3.37;;;17.40;99.90;;;;;;5008195;28;20556;-62
2023/08/04 07:27:16;;;;;;;3.27;2.97;;;17.40;99.90;;;;;;5007541;28;20534;-62
2023/08/04 07:29:44;;;;;;;6.80;3.20;;;17.50;99.90;;;;;;5008818;28;20504;-62
2023/08/04 07:32:12;;;;;;;3.87;3.40;;;17.60;99.90;;;;;;5006210;28;20482;-62
2023/08/04 07:34:40;;;;;;;5.67;3.53;;;17.70;99.90;;;;;;5009051;28;20496;-62
2023/08/04 07:37:08;;;;;;;3.50;3.00;;;17.70;99.90;;;;;;5009068;28;20560;-62
2023/08/04 07:39:36;;;;;;;3.60;3.30;;;17.80;99.90;;;;;;5008997;28;20587;-62
2023/08/04 07:42:06;;;;;;;4.13;3.47;;;18.00;99.90;;;;;;5006894;28;21009;-62
2023/08/04 07:44:35;;;;;;;3.57;2.80;;;18.00;99.90;;;;;;5009299;28;20487;-62
2023/08/04 07:47:03;;;;;;;4.43;2.70;;;18.10;99.90;;;;;;5009233;28;20928;-62
2023/08/04 07:49:31;;;;;;;5.17;3.30;;;18.20;99.90;;;;;;5008217;28;20555;-62
2023/08/04 07:51:59;;;;;;;4.10;3.23;;;18.30;99.90;;;;;;5006684;28;20560;-61
2023/08/04 07:54:27;;;;;;;3.43;3.07;;;18.30;99.90;;;;;;5009025;28;21011;-62
2023/08/04 07:56:55;;;;;;;4.30;3.10;;;18.30;99.90;;;;;;5009070;28;20515;-62
2023/08/04 07:59:24;;;;;;;2.90;2.60;;;18.30;99.90;;;;;;5007678;28;20484;-62
2023/08/04 08:01:52;;;;;;;6.33;2.90;;;18.30;99.90;;;;;;5017160;28;20480;-62
2023/08/04 08:04:20;;;;;;;5.50;2.70;;;18.30;99.90;;;;;;5016214;28;20548;-62
2023/08/04 08:06:48;;;;;;;4.83;3.03;;;18.30;99.90;;;;;;5013898;28;20468;-63
2023/08/04 08:09:16;;;;;;;4.40;2.53;;;18.30;99.90;;;;;;5014504;28;20475;-62
2023/08/04 08:11:44;;;;;;;2.70;2.47;;;18.30;99.90;;;;;;5018191;28;20519;-62
2023/08/04 08:14:12;;;;;;;2.50;2.30;;;18.30;99.90;;;;;;5022493;28;20461;-62
2023/08/04 08:16:42;;;;;;;4.00;2.50;;;18.40;99.90;;;;;;5021218;28;20476;-62
2023/08/04 08:19:10;;;;;;;3.50;2.57;;;18.40;99.90;;;;;;5021754;28;20547;-65
2023/08/04 08:21:41;;;;;;;2.80;2.20;;;18.50;99.90;;;;;;5022403;28;20492;-62
2023/08/04 08:24:09;;;;;;;2.67;2.47;;;18.40;99.90;;;;;;5021817;28;20499;-62
2023/08/04 08:26:37;;;;;;;4.27;2.70;;;18.40;99.90;;;;;;5019512;28;20495;-62
2023/08/04 08:29:06;;;;;;;3.40;2.87;;;18.30;99.90;;;;;;5020855;28;20472;-62
2023/08/04 08:31:34;;;;;;;3.70;2.80;;;18.10;99.90;;;;;;5022163;28;20488;-62
2023/08/04 08:34:04;;;;;;;3.07;2.63;;;18.10;99.90;;;;;;5017560;28;20479;-62
2023/08/04 08:36:32;;;;;;;4.93;3.23;;;18.00;99.90;;;;;;5015063;28;20928;-62
2023/08/04 08:39:00;;;;;;;5.40;3.20;;;18.00;99.90;;;;;;5012170;28;21021;-61
2023/08/04 08:41:28;;;;;;;4.00;3.40;;;17.90;99.90;;;;;;5010108;28;20924;-62
2023/08/04 08:43:56;;;;;;;3.77;2.60;;;17.80;99.90;;;;;;5011757;28;20520;-61
2023/08/04 08:46:25;;;;;;;4.23;2.83;;;17.80;99.90;;;;;;5012489;28;20562;-62
2023/08/04 08:48:58;;;;;;;3.70;2.93;;;17.80;99.90;;;;;;5011273;28;20507;-62
2023/08/04 08:51:30;;;;;;;2.60;2.07;;;17.70;99.90;;;;;;5010203;28;20496;-62
2023/08/04 08:54:00;;;;;;;5.07;2.80;;;17.80;99.90;;;;;;5012137;28;20468;-61
2023/08/04 08:56:28;;;;;;;3.23;2.30;;;17.80;99.90;;;;;;5016708;28;20531;-62
2023/08/04 08:58:56;;;;;;;2.70;2.50;;;17.80;99.90;;;;;;5015405;28;20564;-61
2023/08/04 09:01:24;;;;;;;2.90;2.50;;;17.90;99.90;;;;;;5018867;28;20579;-61
2023/08/04 09:03:53;;;;;;;2.87;2.63;;;17.90;99.90;;;;;;5024061;28;20475;-62
2023/08/04 09:06:21;;;;;;;2.23;1.90;;;18.00;99.90;;;;;;5012634;28;20467;-62
2023/08/04 09:08:50;;;;;;;2.00;1.90;;;18.00;99.90;;;;;;5010223;28;20983;-62
2023/08/04 09:11:18;;;;;;;2.73;2.00;;;18.10;99.90;;;;;;5013449;28;20542;-61
2023/08/04 09:13:49;;;;;;;1.90;1.80;;;18.10;99.90;;;;;;5011703;28;21038;-62
2023/08/04 09:16:18;;;;;;;2.47;1.70;;;18.20;99.90;;;;;;5009927;28;20543;-61
2023/08/04 09:18:46;;;;;;;2.47;1.70;;;18.30;99.90;;;;;;5011596;28;20546;-62
2023/08/04 09:21:15;;;;;;;1.73;1.57;;;18.30;99.90;;;;;;5011609;28;20574;-62
2023/08/04 09:23:47;;;;;;;1.50;1.40;;;18.40;99.90;;;;;;5009809;28;20570;-62
2023/08/04 09:26:17;;;;;;;1.50;1.40;;;18.40;99.90;;;;;;5011482;28;20480;-61
2023/08/04 09:28:45;;;;;;;2.30;1.70;;;18.50;99.90;;;;;;5011229;28;20559;-62
2023/08/04 09:31:14;;;;;;;1.87;1.73;;;18.60;99.90;;;;;;5009824;28;20500;-61
2023/08/04 09:33:44;;;;;;;2.00;1.73;;;18.70;99.90;;;;;;5010873;28;20472;-61
2023/08/04 09:36:15;;;;;;;1.90;1.80;;;18.60;99.90;;;;;;5011007;28;20537;-62
2023/08/04 09:38:44;;;;;;;1.70;1.60;;;18.60;99.90;;;;;;5011138;28;20487;-62
2023/08/04 09:41:13;;;;;;;1.50;1.40;;;18.60;99.90;;;;;;5009471;28;20567;-62
2023/08/04 09:43:46;;;;;;;1.70;1.60;;;18.80;99.90;;;;;;5010448;28;20476;-62
2023/08/04 09:46:14;;;;;;;2.50;1.70;;;19.00;99.90;;;;;;5010708;28;20489;-62
2023/08/04 09:48:42;;;;;;;2.00;1.70;;;19.10;99.90;;;;;;5010855;28;21014;-61
2023/08/04 09:51:12;;;;;;;3.60;2.17;;;19.20;99.90;;;;;;5009191;28;20492;-62
2023/08/04 09:53:44;;;;;;;4.37;1.90;;;19.20;99.90;;;;;;5010121;28;20542;-62
2023/08/04 09:56:13;;;;;;;1.93;1.83;;;19.30;99.90;;;;;;5010933;28;20474;-62
2023/08/04 09:58:44;;;;;;;2.30;2.10;;;19.50;99.90;;;;;;5009594;28;20853;-62
2023/08/04 10:01:12;;;;;;;1.80;1.70;;;19.50;99.90;;;;;;5011711;28;20542;-62
2023/08/04 10:03:42;;;;;;;2.47;1.97;;;19.50;99.90;;;;;;5009467;28;20491;-62
2023/08/04 10:06:10;;;;;;;2.90;2.33;;;19.60;99.90;;;;;;5009081;28;20482;-62
2023/08/04 10:08:40;;;;;;;4.03;2.50;;;19.50;99.90;;;;;;5010061;28;20508;-62
2023/08/04 10:11:09;;;;;;;2.63;2.13;;;19.50;99.90;;;;;;5010037;28;20887;-62
2023/08/04 10:13:40;;;;;;;3.20;1.97;;;19.40;99.90;;;;;;5008568;28;20488;-62
2023/08/04 10:16:11;;;;;;;2.67;2.40;;;19.30;99.90;;;;;;5007718;28;20993;-62
2023/08/04 10:18:50;;;;;;;2.00;1.90;;;19.10;99.90;;;;;;5010223;28;20472;-61
2023/08/04 10:21:21;;;;;;;2.60;2.00;;;19.10;99.90;;;;;;5009459;28;20553;-61
2023/08/04 10:23:52;;;;;;;2.53;2.33;;;19.00;99.90;;;;;;5008323;28;20595;-62
2023/08/04 10:26:20;;;;;;;2.67;2.00;;;18.90;99.90;;;;;;5009978;28;20558;-62
2023/08/04 10:29:08;;;;;;;2.53;2.33;;;18.80;99.90;;;;;;5010134;28;20472;-61
2023/08/04 10:31:52;;;;;;;2.23;2.03;;;18.70;99.90;;;;;;5008453;28;20531;-62
2023/08/04 10:34:27;;;;;;;2.40;2.20;;;18.70;99.90;;;;;;5010074;28;20479;-62
2023/08/04 10:37:00;;;;;;;3.23;2.37;;;18.70;99.90;;;;;;5010000;28;20917;-62
2023/08/04 10:39:33;;;;;;;2.60;2.40;;;18.80;99.90;;;;;;5009532;28;20468;-61
2023/08/04 10:42:06;;;;;;;2.20;2.00;;;18.90;99.90;;;;;;5007623;28;20561;-62
2023/08/04 10:44:52;;;;;;;2.70;2.40;;;19.00;99.90;;;;;;5009640;28;20566;-62
2023/08/04 10:47:44;;;;;;;2.80;2.37;;;19.10;99.90;;;;;;5009365;28;20495;-62
2023/08/04 10:50:32;;;;;;;2.10;2.00;;;19.20;99.90;;;;;;5009229;28;20479;-62
2023/08/04 10:53:00;;;;;;;2.93;2.13;;;19.40;99.90;;;;;;5009305;28;20480;-62
2023/08/04 10:55:28;;;;;;;2.90;2.20;;;19.30;99.90;;;;;;5009337;28;20487;-62
2023/08/04 10:57:56;;;;;;;2.70;2.30;;;19.30;99.90;;;;;;5007290;28;20480;-62
2023/08/04 11:00:24;;;;;;;2.37;2.17;;;19.40;99.90;;;;;;5009039;28;20550;-62
2023/08/04 11:02:54;;;;;;;3.10;2.30;;;19.60;99.90;;;;;;5008978;28;20563;-62
2023/08/04 11:05:23;;;;;;;5.07;2.50;;;19.70;99.90;;;;;;5009149;28;20496;-62
2023/08/04 11:07:52;;;;;;;2.67;2.20;;;19.80;99.90;;;;;;5007690;28;20479;-64
2023/08/04 11:10:21;;;;;;;1.77;1.67;;;19.80;99.90;;;;;;5009500;28;20542;-64
2023/08/04 11:12:53;;;;;;;3.17;2.30;;;19.90;99.90;;;;;;5006658;28;20483;-62
2023/08/04 11:15:21;;;;;;;2.30;2.10;;;20.00;99.90;;;;;;5007235;28;20539;-62
2023/08/04 11:17:49;;;;;;;3.13;1.80;;;20.20;99.90;;;;;;5009303;28;21060;-62
2023/08/04 11:20:19;;;;;;;2.00;1.70;;;20.40;99.90;;;;;;5008763;28;20488;-62
2023/08/04 11:23:00;;;;;;;2.70;2.00;;;20.50;99.90;;;;;;5008375;28;20484;-62
2023/08/04 11:25:28;;;;;;;2.10;1.90;;;20.70;99.90;;;;;;5007296;28;20491;-62
2023/08/04 11:27:56;;;;;;;2.03;1.93;;;20.80;99.90;;;;;;5009845;28;20468;-62
2023/08/04 11:30:26;;;;;;;2.47;2.10;;;20.90;99.90;;;;;;5009156;28;20488;-62
2023/08/04 11:32:54;;;;;;;2.40;2.20;;;21.00;99.90;;;;;;5016087;28;20540;-62
2023/08/04 11:35:24;;;;;;;3.10;2.10;;;21.10;99.90;;;;;;5025478;28;20470;-62
2023/08/04 11:37:52;;;;;;;2.33;1.77;;;21.20;99.90;;;;;;5011226;28;20961;-62
2023/08/04 11:40:21;;;;;;;2.13;1.80;;;21.20;99.90;;;;;;5008631;28;20487;-62
2023/08/04 11:42:50;;;;;;;2.23;2.03;;;21.10;99.90;;;;;;5008243;28;21171;-62
2023/08/04 11:45:19;;;;;;;2.07;1.97;;;21.00;99.90;;;;;;5009541;28;20546;-62
2023/08/04 11:47:47;;;;;;;4.17;2.50;;;20.90;99.90;;;;;;5008835;28;20892;-62
2023/08/04 11:50:17;;;;;;;2.87;2.20;;;20.80;99.90;;;;;;5006790;28;20492;-61
2023/08/04 11:52:48;;;;;;;2.77;2.40;;;20.60;99.90;;;;;;5008361;28;20560;-62
2023/08/04 11:55:16;;;;;;;3.17;2.73;;;20.20;99.90;;;;;;5008847;28;20469;-62
2023/08/04 11:57:51;;;;;;;2.87;2.07;;;20.00;99.90;;;;;;5009010;28;21054;-62
2023/08/04 12:00:33;;;;;;;3.87;2.27;;;19.90;99.90;;;;;;5007957;28;20533;-62
2023/08/04 12:03:03;;;;;;;4.30;2.50;;;19.80;99.90;;;;;;5008709;28;20567;-62
2023/08/04 12:05:32;;;;;;;3.80;2.40;;;19.70;99.90;;;;;;5007137;28;20871;-62
2023/08/04 12:08:11;;;;;;;2.80;2.50;;;19.60;99.90;;;;;;5008016;28;20476;-61
2023/08/04 12:10:40;;;;;;;4.10;2.50;;;19.40;99.90;;;;;;5013270;28;20500;-62
2023/08/04 12:13:08;;;;;;;2.83;2.60;;;19.20;99.90;;;;;;5010659;28;20490;-62
2023/08/04 12:15:51;;;;;;;3.00;2.70;;;19.00;99.90;;;;;;5014022;28;20518;-62
2023/08/04 12:18:26;;;;;;;2.03;1.83;;;19.00;99.90;;;;;;5015097;28;20482;-62
2023/08/04 12:20:56;;;;;;;2.23;2.00;;;18.80;99.90;;;;;;5014971;28;20502;-62
2023/08/04 12:23:25;;;;;;;2.13;1.80;;;18.70;99.90;;;;;;5012458;28;20526;-62
2023/08/04 12:25:54;;;;;;;3.33;2.20;;;18.60;99.90;;;;;;5014646;28;20488;-62
2023/08/04 12:28:22;;;;;;;2.83;2.20;;;18.50;99.90;;;;;;5014573;28;21174;-61
2023/08/04 12:30:51;;;;;;;3.13;2.07;;;18.50;99.90;;;;;;5014397;28;21044;-62
2023/08/04 12:33:39;;;;;;;2.63;2.13;;;18.60;99.90;;;;;;5013774;28;20476;-62
2023/08/04 12:36:07;;;;;;;2.40;1.83;;;18.70;99.90;;;;;;5015355;28;20472;-62
2023/08/04 12:38:36;;;;;;;6.40;2.40;;;19.00;99.90;;;;;;5014785;28;20535;-62
2023/08/04 12:41:04;;;;;;;2.17;2.07;;;19.40;99.90;;;;;;5010869;28;21544;-62
2023/08/04 12:43:32;;;;;;;3.53;1.97;;;19.60;99.90;;;;;;5014224;28;20486;-62
2023/08/04 12:46:00;;;;;;;2.50;1.90;;;19.80;99.90;;;;;;5014349;28;21024;-62
2023/08/04 12:48:29;;;;;;;3.03;1.87;;;19.90;99.90;;;;;;5014683;28;20471;-62
2023/08/04 12:50:57;;;;;;;1.73;1.50;;;20.20;99.90;;;;;;5012549;28;20491;-62
2023/08/04 12:53:25;;;;;;;3.57;1.83;;;20.50;99.90;;;;;;5014565;28;21205;-62
2023/08/04 12:55:54;;;;;;;2.80;1.80;;;20.70;99.90;;;;;;5014507;28;20639;-62